Zabcikville, Texas
Current Conditions -  °F | °C
As of 4:35 PM on Tuesday 21 Oct 2014 (Local Time) from KTPL Reporting Station
Clear Clear  
Wind Chill: 81°   Ceiling: Unl
Heat Index: 81°   Visibility: 10mi
Dew Point: 46°   Wind: 7mph
Humidity: 30%   Direction: 120°ESE
Pressure: 30.01"   Gusts: NA
Location:  31.0795°N, 97.3287°W
Report Text: KTPL 212135Z AUTO 12006KT 10SM CLR 27/08 A3001 RMK AO1
Loading
Personal Weather Stations






























Interactive Weather Map
Tropical Storm Tracking
New forecast layout! Learn more

10-Day Weather Forecast

Advertisements
Track Severe Weather on mobile